createdAt,value
2022-08-10T00:04:49.401Z,20.88
2022-08-10T00:09:52.128Z,20.77
2022-08-10T00:14:56.307Z,20.59
2022-08-10T00:20:03.455Z,20.44
2022-08-10T00:25:08.540Z,20.21
2022-08-10T00:30:14.087Z,20.06
2022-08-10T00:35:16.846Z,19.84
2022-08-10T00:40:37.216Z,19.67
2022-08-10T00:45:42.080Z,19.52
2022-08-10T00:50:46.036Z,19.38
2022-08-10T00:57:12.243Z,19.20
2022-08-10T01:02:08.499Z,18.96
2022-08-10T01:06:54.629Z,18.83
2022-08-10T01:12:39.752Z,18.66
2022-08-10T01:17:50.201Z,18.54
2022-08-10T01:23:26.936Z,18.43
2022-08-10T01:28:38.913Z,18.33
2022-08-10T01:34:01.957Z,18.25
2022-08-10T01:39:07.349Z,18.18
2022-08-10T01:44:13.232Z,18.06
2022-08-10T01:49:20.332Z,17.95
2022-08-10T01:54:27.227Z,17.81
2022-08-10T01:59:34.776Z,17.73
2022-08-10T02:04:39.544Z,17.61
2022-08-10T02:09:47.903Z,17.52
2022-08-10T02:14:55.095Z,17.40
2022-08-10T02:20:03.164Z,17.31
2022-08-10T02:25:09.092Z,17.25
2022-08-10T02:30:15.450Z,17.15
2022-08-10T02:35:22.695Z,17.05
2022-08-10T02:45:13.917Z,16.95
2022-08-10T02:45:51.348Z,16.89
2022-08-10T02:50:59.629Z,16.79
2022-08-10T02:56:07.621Z,16.66
2022-08-10T03:01:14.303Z,16.52
2022-08-10T03:06:21.721Z,16.44
2022-08-10T03:12:35.373Z,16.30
2022-08-10T03:16:52.384Z,16.30
2022-08-10T03:21:58.067Z,16.22
2022-08-10T03:27:01.533Z,16.13
2022-08-10T03:32:06.708Z,16.10
2022-08-10T03:37:10.953Z,15.99
2022-08-10T03:42:16.223Z,15.95
2022-08-10T03:47:22.219Z,15.87
2022-08-10T03:52:27.505Z,15.80
2022-08-10T03:57:31.001Z,15.65
2022-08-10T04:02:44.494Z,15.58
2022-08-10T04:07:52.462Z,15.59
2022-08-10T04:12:55.744Z,15.55
2022-08-10T04:18:05.752Z,15.50
2022-08-10T04:23:16.279Z,15.47
2022-08-10T04:28:20.198Z,15.37
2022-08-10T04:33:24.605Z,15.37
2022-08-10T04:38:30.887Z,15.40
2022-08-10T04:43:34.091Z,15.47
2022-08-10T04:48:42.688Z,15.51
2022-08-10T04:54:05.147Z,15.46
2022-08-10T04:59:12.237Z,15.55
2022-08-10T05:04:36.395Z,15.53
2022-08-10T05:10:02.469Z,15.58
2022-08-10T05:15:02.523Z,15.64
2022-08-10T05:20:07.669Z,15.75
2022-08-10T05:25:13.726Z,15.89
2022-08-10T05:30:20.274Z,16.03
2022-08-10T05:35:23.711Z,16.20
2022-08-10T05:40:28.700Z,16.44
2022-08-10T05:45:31.710Z,16.74
2022-08-10T05:50:34.767Z,17.11
2022-08-10T05:55:38.930Z,17.52
2022-08-10T06:00:49.947Z,17.90
2022-08-10T06:05:55.604Z,18.23
2022-08-10T06:12:23.233Z,18.63
2022-08-10T06:16:27.406Z,18.96
2022-08-10T06:21:30.423Z,19.31
2022-08-10T06:26:34.690Z,19.74
2022-08-10T06:31:48.491Z,20.02
2022-08-10T06:36:54.133Z,20.34
2022-08-10T06:42:16.225Z,20.71
2022-08-10T06:47:23.868Z,20.89
2022-08-10T06:52:28.444Z,21.17
2022-08-10T06:57:35.674Z,21.60
2022-08-10T07:02:45.311Z,21.86
2022-08-10T07:07:49.455Z,22.11
2022-08-10T07:12:58.761Z,22.34
2022-08-10T07:18:03.095Z,22.38
2022-08-10T07:23:56.996Z,22.85
2022-08-10T07:28:34.707Z,22.95
2022-08-10T07:33:39.936Z,23.20
2022-08-10T07:38:44.371Z,23.62
2022-08-10T07:43:51.606Z,23.86
2022-08-10T07:49:01.562Z,23.97
2022-08-10T07:54:08.612Z,24.30
2022-08-10T07:59:17.053Z,24.62
2022-08-10T08:04:21.866Z,24.80
2022-08-10T08:09:26.032Z,25.01
2022-08-10T08:14:31.208Z,25.34
2022-08-10T08:19:37.494Z,25.61
2022-08-10T08:24:45.268Z,25.61
2022-08-10T08:29:50.915Z,26.01
2022-08-10T08:34:56.185Z,26.22
2022-08-10T08:39:59.037Z,26.65
2022-08-10T08:45:15.174Z,26.95
2022-08-10T08:50:29.902Z,26.86
2022-08-10T08:55:52.306Z,27.09
2022-08-10T09:01:24.501Z,27.38
2022-08-10T09:07:03.199Z,27.62
2022-08-10T09:12:21.406Z,28.00
2022-08-10T09:17:33.770Z,28.08
2022-08-10T09:22:44.663Z,27.46
2022-08-10T09:27:49.667Z,28.02
2022-08-10T09:36:24.971Z,28.31
2022-08-10T09:38:35.824Z,28.62
2022-08-10T09:43:45.965Z,29.11
2022-08-10T09:49:02.083Z,28.99
2022-08-10T09:54:17.143Z,28.27
2022-08-10T10:00:00.189Z,28.27
2022-08-10T10:05:13.786Z,28.67
2022-08-10T10:10:23.608Z,28.84
2022-08-10T10:15:34.500Z,28.68
2022-08-10T10:20:45.875Z,28.96
2022-08-10T10:25:59.379Z,29.20
2022-08-10T10:31:16.697Z,29.01
2022-08-10T10:36:23.459Z,29.47
2022-08-10T10:42:03.795Z,29.20
2022-08-10T10:47:09.538Z,29.80
2022-08-10T10:52:28.510Z,29.61
2022-08-10T10:57:59.107Z,29.91
2022-08-10T11:03:16.555Z,30.60
2022-08-10T11:08:28.749Z,29.78
2022-08-10T11:14:26.771Z,30.40
2022-08-10T11:19:11.775Z,30.05
2022-08-10T11:24:48.978Z,29.92
2022-08-10T11:29:56.280Z,31.01
2022-08-10T11:35:11.057Z,31.20
2022-08-10T11:40:22.661Z,31.91
2022-08-10T11:45:31.362Z,32.33
2022-08-10T11:50:38.183Z,32.48
2022-08-10T11:55:49.299Z,32.16
2022-08-10T12:00:55.442Z,32.55
2022-08-10T12:05:59.751Z,33.03
2022-08-10T12:11:04.217Z,33.66
2022-08-10T12:16:10.755Z,33.77
2022-08-10T12:21:22.097Z,33.93
2022-08-10T12:26:29.480Z,33.34
2022-08-10T12:31:39.605Z,33.36
2022-08-10T12:36:48.067Z,34.61
2022-08-10T12:41:58.060Z,34.29
2022-08-10T12:47:10.509Z,35.22
2022-08-10T12:52:20.830Z,35.43
2022-08-10T12:57:27.012Z,35.94
2022-08-10T13:02:33.516Z,37.10
2022-08-10T13:08:25.294Z,35.36
2022-08-10T13:13:04.497Z,35.64
2022-08-10T13:18:18.149Z,35.90
2022-08-10T13:23:25.015Z,36.94
2022-08-10T13:28:39.708Z,36.66
2022-08-10T13:34:39.449Z,36.81
2022-08-10T13:39:13.692Z,38.67
2022-08-10T13:44:29.810Z,39.51
2022-08-10T13:49:42.928Z,39.88
2022-08-10T13:54:47.465Z,40.16
2022-08-10T14:00:36.849Z,38.80
2022-08-10T14:05:24.249Z,39.43
2022-08-10T14:11:10.102Z,38.68
2022-08-10T14:15:55.397Z,40.23
2022-08-10T14:21:00.062Z,42.41
2022-08-10T14:26:48.849Z,43.71
2022-08-10T14:32:00.716Z,41.35
2022-08-10T14:37:09.861Z,41.34
2022-08-10T14:42:27.011Z,40.73
2022-08-10T14:47:52.182Z,40.21
2022-08-10T14:52:58.136Z,44.94
2022-08-10T14:58:19.247Z,45.65
2022-08-10T15:04:02.337Z,43.53
2022-08-10T15:08:53.187Z,41.45
2022-08-10T15:14:20.072Z,43.59
2022-08-10T15:19:34.269Z,43.46
2022-08-10T15:25:06.801Z,43.66
2022-08-10T15:30:29.792Z,45.93
2022-08-10T15:36:05.356Z,45.35
2022-08-10T15:41:11.200Z,44.64
2022-08-10T15:46:20.151Z,45.57
2022-08-10T15:51:32.503Z,48.75
2022-08-10T15:56:56.621Z,47.89
2022-08-10T16:02:15.454Z,46.63
2022-08-10T16:07:45.978Z,50.09
2022-08-10T16:13:00.085Z,48.65
2022-08-10T16:18:08.401Z,46.64
2022-08-10T16:23:17.474Z,45.85
2022-08-10T16:28:23.998Z,47.70
2022-08-10T16:33:53.634Z,47.20
2022-08-10T16:38:56.744Z,46.72
2022-08-10T16:44:02.236Z,43.65
2022-08-10T16:49:06.359Z,39.60
2022-08-10T16:54:11.837Z,41.39
2022-08-10T16:59:20.536Z,38.18
2022-08-10T17:04:25.312Z,40.38
2022-08-10T17:09:32.958Z,38.64
2022-08-10T17:14:39.816Z,39.15
2022-08-10T17:19:45.825Z,35.30
2022-08-10T17:24:56.155Z,34.81
2022-08-10T17:30:04.661Z,33.08
2022-08-10T17:35:16.790Z,32.16
2022-08-10T17:40:25.241Z,31.47
2022-08-10T17:45:47.889Z,31.09
2022-08-10T17:50:55.534Z,30.02
2022-08-10T17:56:01.474Z,29.21
2022-08-10T18:01:38.384Z,28.98
2022-08-10T18:06:29.955Z,28.77
2022-08-10T18:11:35.847Z,28.45
2022-08-10T18:16:41.796Z,28.09
2022-08-10T18:21:47.444Z,27.83
2022-08-10T18:26:55.101Z,27.66
2022-08-10T18:32:01.897Z,27.33
2022-08-10T18:37:06.180Z,27.06
2022-08-10T18:42:14.171Z,26.85
2022-08-10T18:47:20.577Z,26.72
2022-08-10T18:52:28.003Z,26.48
2022-08-10T18:57:56.779Z,26.22
2022-08-10T19:03:32.753Z,26.08
2022-08-10T19:09:46.347Z,25.76
2022-08-10T19:14:55.794Z,25.64
2022-08-10T19:20:07.589Z,25.41
2022-08-10T19:26:41.264Z,25.27
2022-08-10T19:30:52.836Z,25.09
2022-08-10T19:36:09.566Z,24.99
2022-08-10T19:41:18.422Z,24.83
2022-08-10T19:46:36.934Z,24.71
2022-08-10T19:51:49.882Z,24.59
2022-08-10T19:57:01.784Z,24.44
2022-08-10T20:02:10.438Z,24.36
2022-08-10T20:07:18.839Z,24.24
2022-08-10T20:12:35.081Z,24.13
2022-08-10T20:17:55.630Z,24.04
2022-08-10T20:23:13.781Z,23.95
2022-08-10T20:28:21.347Z,23.91
2022-08-10T20:33:30.071Z,23.71
2022-08-10T20:38:39.570Z,23.58
2022-08-10T20:43:51.838Z,23.41
2022-08-10T20:49:01.090Z,23.26
2022-08-10T20:54:08.407Z,23.17
2022-08-10T20:59:33.712Z,23.12
2022-08-10T21:04:51.555Z,23.13
2022-08-10T21:10:04.560Z,23.05
2022-08-10T21:15:21.762Z,23.03
2022-08-10T21:20:47.086Z,22.95
2022-08-10T21:26:07.446Z,22.97
2022-08-10T21:31:37.327Z,22.95
2022-08-10T21:36:50.562Z,22.88
2022-08-10T21:42:28.176Z,22.83
2022-08-10T21:48:07.072Z,22.78
2022-08-10T21:53:44.963Z,22.70
2022-08-10T21:59:15.724Z,22.69
2022-08-10T22:04:36.396Z,22.64
2022-08-10T22:16:09.742Z,22.52
2022-08-10T22:21:41.319Z,22.51
2022-08-10T22:27:46.156Z,22.47
2022-08-10T22:31:25.830Z,22.60
2022-08-10T22:33:28.957Z,22.44
2022-08-10T22:39:12.100Z,22.34
2022-08-10T22:49:36.137Z,22.16
2022-08-10T22:55:03.724Z,22.07
2022-08-10T23:00:16.980Z,22.07
2022-08-10T23:05:34.169Z,22.07
2022-08-10T23:10:40.031Z,22.00
2022-08-10T23:16:12.568Z,21.91
2022-08-10T23:21:17.528Z,21.88
2022-08-10T23:26:25.915Z,21.71
2022-08-10T23:31:50.287Z,21.54
2022-08-10T23:36:57.146Z,21.33
2022-08-10T23:42:07.446Z,21.13
2022-08-10T23:47:15.178Z,20.95
2022-08-10T23:52:19.692Z,20.79
2022-08-10T23:57:24.726Z,20.64
